sensor_id;sensor_type;location;lat;lon;timestamp;P1;durP1;ratioP1;P2;durP2;ratioP2
359;SDS011;168;48.872;9.226;2023-07-24T00:01:44;14.20;;;9.70;;
359;SDS011;168;48.872;9.226;2023-07-24T00:04:11;12.50;;;9.73;;
359;SDS011;168;48.872;9.226;2023-07-24T00:06:39;10.23;;;8.47;;
359;SDS011;168;48.872;9.226;2023-07-24T00:09:06;11.83;;;8.60;;
359;SDS011;168;48.872;9.226;2023-07-24T00:11:35;11.73;;;9.17;;
359;SDS011;168;48.872;9.226;2023-07-24T00:14:02;11.30;;;8.67;;
359;SDS011;168;48.872;9.226;2023-07-24T00:16:30;10.63;;;9.07;;
359;SDS011;168;48.872;9.226;2023-07-24T00:18:57;11.33;;;8.20;;
359;SDS011;168;48.872;9.226;2023-07-24T00:21:24;10.90;;;8.67;;
359;SDS011;168;48.872;9.226;2023-07-24T00:23:52;11.80;;;9.90;;
359;SDS011;168;48.872;9.226;2023-07-24T00:26:19;12.70;;;9.67;;
359;SDS011;168;48.872;9.226;2023-07-24T00:28:48;11.90;;;9.50;;
359;SDS011;168;48.872;9.226;2023-07-24T00:31:15;10.40;;;8.87;;
359;SDS011;168;48.872;9.226;2023-07-24T00:33:42;9.70;;;8.70;;
359;SDS011;168;48.872;9.226;2023-07-24T00:36:10;9.33;;;8.20;;
359;SDS011;168;48.872;9.226;2023-07-24T00:38:37;10.70;;;8.90;;
359;SDS011;168;48.872;9.226;2023-07-24T00:41:04;11.80;;;9.63;;
359;SDS011;168;48.872;9.226;2023-07-24T00:43:31;10.73;;;9.10;;
359;SDS011;168;48.872;9.226;2023-07-24T00:46:00;12.03;;;8.80;;
359;SDS011;168;48.872;9.226;2023-07-24T00:48:28;13.70;;;9.37;;
359;SDS011;168;48.872;9.226;2023-07-24T00:50:56;11.37;;;9.20;;
359;SDS011;168;48.872;9.226;2023-07-24T00:53:23;12.03;;;9.20;;
359;SDS011;168;48.872;9.226;2023-07-24T00:55:51;11.07;;;8.87;;
359;SDS011;168;48.872;9.226;2023-07-24T00:58:18;11.53;;;8.97;;
359;SDS011;168;48.872;9.226;2023-07-24T01:00:46;9.33;;;8.03;;
359;SDS011;168;48.872;9.226;2023-07-24T01:03:15;9.67;;;8.40;;
359;SDS011;168;48.872;9.226;2023-07-24T01:05:42;10.00;;;8.87;;
359;SDS011;168;48.872;9.226;2023-07-24T01:08:09;12.73;;;8.80;;
359;SDS011;168;48.872;9.226;2023-07-24T01:10:37;9.77;;;8.77;;
359;SDS011;168;48.872;9.226;2023-07-24T01:13:05;11.43;;;8.30;;
359;SDS011;168;48.872;9.226;2023-07-24T01:15:36;9.57;;;8.07;;
359;SDS011;168;48.872;9.226;2023-07-24T01:18:09;11.03;;;9.07;;
359;SDS011;168;48.872;9.226;2023-07-24T01:20:39;10.03;;;8.20;;
359;SDS011;168;48.872;9.226;2023-07-24T01:23:19;9.87;;;8.10;;
359;SDS011;168;48.872;9.226;2023-07-24T01:25:57;11.13;;;9.13;;
359;SDS011;168;48.872;9.226;2023-07-24T01:28:25;9.70;;;8.10;;
359;SDS011;168;48.872;9.226;2023-07-24T01:30:52;10.77;;;8.53;;
359;SDS011;168;48.872;9.226;2023-07-24T01:33:20;10.33;;;8.63;;
359;SDS011;168;48.872;9.226;2023-07-24T01:35:49;9.57;;;8.57;;
359;SDS011;168;48.872;9.226;2023-07-24T01:38:20;9.13;;;8.13;;
359;SDS011;168;48.872;9.226;2023-07-24T01:40:49;9.90;;;7.90;;
359;SDS011;168;48.872;9.226;2023-07-24T01:43:19;9.90;;;8.33;;
359;SDS011;168;48.872;9.226;2023-07-24T01:45:47;11.50;;;9.40;;
359;SDS011;168;48.872;9.226;2023-07-24T01:48:14;9.73;;;8.10;;
359;SDS011;168;48.872;9.226;2023-07-24T01:50:41;10.60;;;8.97;;
359;SDS011;168;48.872;9.226;2023-07-24T01:53:09;9.80;;;8.50;;
359;SDS011;168;48.872;9.226;2023-07-24T01:55:36;11.13;;;8.70;;
359;SDS011;168;48.872;9.226;2023-07-24T01:58:04;11.87;;;8.90;;
359;SDS011;168;48.872;9.226;2023-07-24T02:00:33;9.63;;;8.47;;
359;SDS011;168;48.872;9.226;2023-07-24T02:03:00;10.13;;;8.40;;
359;SDS011;168;48.872;9.226;2023-07-24T02:05:27;10.83;;;8.60;;
359;SDS011;168;48.872;9.226;2023-07-24T02:07:55;11.50;;;8.40;;
359;SDS011;168;48.872;9.226;2023-07-24T02:10:22;10.70;;;9.60;;
359;SDS011;168;48.872;9.226;2023-07-24T02:12:50;10.83;;;9.73;;
359;SDS011;168;48.872;9.226;2023-07-24T02:15:17;11.23;;;9.37;;
359;SDS011;168;48.872;9.226;2023-07-24T02:17:45;10.03;;;8.57;;
359;SDS011;168;48.872;9.226;2023-07-24T02:20:13;10.97;;;9.80;;
359;SDS011;168;48.872;9.226;2023-07-24T02:22:40;10.83;;;9.10;;
359;SDS011;168;48.872;9.226;2023-07-24T02:25:08;13.20;;;9.57;;
359;SDS011;168;48.872;9.226;2023-07-24T02:27:35;10.87;;;8.83;;
359;SDS011;168;48.872;9.226;2023-07-24T02:30:03;10.30;;;9.17;;
359;SDS011;168;48.872;9.226;2023-07-24T02:32:31;12.67;;;9.53;;
359;SDS011;168;48.872;9.226;2023-07-24T02:34:59;13.27;;;10.63;;
359;SDS011;168;48.872;9.226;2023-07-24T02:37:27;9.67;;;8.67;;
359;SDS011;168;48.872;9.226;2023-07-24T02:39:54;10.80;;;8.90;;
359;SDS011;168;48.872;9.226;2023-07-24T02:42:21;13.50;;;9.57;;
359;SDS011;168;48.872;9.226;2023-07-24T02:44:49;9.80;;;8.77;;
359;SDS011;168;48.872;9.226;2023-07-24T02:47:18;11.70;;;8.57;;
359;SDS011;168;48.872;9.226;2023-07-24T02:49:46;12.20;;;9.43;;
359;SDS011;168;48.872;9.226;2023-07-24T02:52:14;10.20;;;9.10;;
359;SDS011;168;48.872;9.226;2023-07-24T02:54:42;10.73;;;9.17;;
359;SDS011;168;48.872;9.226;2023-07-24T02:57:09;12.67;;;9.07;;
359;SDS011;168;48.872;9.226;2023-07-24T02:59:36;10.40;;;9.23;;
359;SDS011;168;48.872;9.226;2023-07-24T03:02:04;10.10;;;8.33;;
359;SDS011;168;48.872;9.226;2023-07-24T03:04:31;11.53;;;10.20;;
359;SDS011;168;48.872;9.226;2023-07-24T03:06:59;13.70;;;10.17;;
359;SDS011;168;48.872;9.226;2023-07-24T03:09:27;10.47;;;8.93;;
359;SDS011;168;48.872;9.226;2023-07-24T03:11:55;12.00;;;10.33;;
359;SDS011;168;48.872;9.226;2023-07-24T03:14:22;22.50;;;19.53;;
359;SDS011;168;48.872;9.226;2023-07-24T03:16:49;12.90;;;11.60;;
359;SDS011;168;48.872;9.226;2023-07-24T03:19:17;10.43;;;8.50;;
359;SDS011;168;48.872;9.226;2023-07-24T03:21:45;10.63;;;8.37;;
359;SDS011;168;48.872;9.226;2023-07-24T03:24:13;11.27;;;8.60;;
359;SDS011;168;48.872;9.226;2023-07-24T03:26:41;10.83;;;8.83;;
359;SDS011;168;48.872;9.226;2023-07-24T03:29:09;9.73;;;8.37;;
359;SDS011;168;48.872;9.226;2023-07-24T03:31:36;9.13;;;7.90;;
359;SDS011;168;48.872;9.226;2023-07-24T03:34:03;11.50;;;9.13;;
359;SDS011;168;48.872;9.226;2023-07-24T03:36:31;9.27;;;7.60;;
359;SDS011;168;48.872;9.226;2023-07-24T03:38:59;10.43;;;8.60;;
359;SDS011;168;48.872;9.226;2023-07-24T03:41:26;10.07;;;8.37;;
359;SDS011;168;48.872;9.226;2023-07-24T03:43:55;9.70;;;7.70;;
359;SDS011;168;48.872;9.226;2023-07-24T03:46:22;10.57;;;8.83;;
359;SDS011;168;48.872;9.226;2023-07-24T03:48:50;9.93;;;7.43;;
359;SDS011;168;48.872;9.226;2023-07-24T03:51:17;11.70;;;8.93;;
359;SDS011;168;48.872;9.226;2023-07-24T03:53:44;10.40;;;8.30;;
359;SDS011;168;48.872;9.226;2023-07-24T03:56:11;10.97;;;8.70;;
359;SDS011;168;48.872;9.226;2023-07-24T03:58:39;9.27;;;8.37;;
359;SDS011;168;48.872;9.226;2023-07-24T04:01:07;8.67;;;7.57;;
359;SDS011;168;48.872;9.226;2023-07-24T04:03:35;9.40;;;7.10;;
359;SDS011;168;48.872;9.226;2023-07-24T04:06:03;10.30;;;7.93;;
359;SDS011;168;48.872;9.226;2023-07-24T04:08:30;10.67;;;9.50;;
359;SDS011;168;48.872;9.226;2023-07-24T04:10:57;9.60;;;8.27;;
359;SDS011;168;48.872;9.226;2023-07-24T04:13:25;8.43;;;7.63;;
359;SDS011;168;48.872;9.226;2023-07-24T04:15:52;10.60;;;8.20;;
359;SDS011;168;48.872;9.226;2023-07-24T04:18:21;9.37;;;7.60;;
359;SDS011;168;48.872;9.226;2023-07-24T04:20:48;10.93;;;9.47;;
359;SDS011;168;48.872;9.226;2023-07-24T04:23:15;10.37;;;8.20;;
359;SDS011;168;48.872;9.226;2023-07-24T04:25:42;12.10;;;8.77;;
359;SDS011;168;48.872;9.226;2023-07-24T04:28:10;8.30;;;7.30;;
359;SDS011;168;48.872;9.226;2023-07-24T04:30:37;9.27;;;7.87;;
359;SDS011;168;48.872;9.226;2023-07-24T04:33:05;8.90;;;7.80;;
359;SDS011;168;48.872;9.226;2023-07-24T04:35:34;10.43;;;8.67;;
359;SDS011;168;48.872;9.226;2023-07-24T04:38:01;9.53;;;8.23;;
359;SDS011;168;48.872;9.226;2023-07-24T04:40:28;11.80;;;9.03;;
359;SDS011;168;48.872;9.226;2023-07-24T04:42:56;12.53;;;9.50;;
359;SDS011;168;48.872;9.226;2023-07-24T04:45:23;10.23;;;8.60;;
359;SDS011;168;48.872;9.226;2023-07-24T04:47:50;9.50;;;7.93;;
359;SDS011;168;48.872;9.226;2023-07-24T04:50:18;12.77;;;8.30;;
359;SDS011;168;48.872;9.226;2023-07-24T04:52:46;9.87;;;8.03;;
359;SDS011;168;48.872;9.226;2023-07-24T04:55:14;9.67;;;8.10;;
359;SDS011;168;48.872;9.226;2023-07-24T04:57:41;10.60;;;8.13;;
359;SDS011;168;48.872;9.226;2023-07-24T05:00:09;8.80;;;7.90;;
359;SDS011;168;48.872;9.226;2023-07-24T05:02:37;9.30;;;7.50;;
359;SDS011;168;48.872;9.226;2023-07-24T05:05:05;10.20;;;8.40;;
359;SDS011;168;48.872;9.226;2023-07-24T05:07:32;8.67;;;7.37;;
359;SDS011;168;48.872;9.226;2023-07-24T05:10:01;10.60;;;8.30;;
359;SDS011;168;48.872;9.226;2023-07-24T05:12:29;9.17;;;7.73;;
359;SDS011;168;48.872;9.226;2023-07-24T05:14:55;8.30;;;7.40;;
359;SDS011;168;48.872;9.226;2023-07-24T05:17:22;10.47;;;8.10;;
359;SDS011;168;48.872;9.226;2023-07-24T05:19:49;8.90;;;7.73;;
359;SDS011;168;48.872;9.226;2023-07-24T05:22:17;8.67;;;7.57;;
359;SDS011;168;48.872;9.226;2023-07-24T05:24:44;9.13;;;7.47;;
359;SDS011;168;48.872;9.226;2023-07-24T05:27:13;9.63;;;7.70;;
359;SDS011;168;48.872;9.226;2023-07-24T05:29:41;10.70;;;9.20;;
359;SDS011;168;48.872;9.226;2023-07-24T05:32:09;9.93;;;8.17;;
359;SDS011;168;48.872;9.226;2023-07-24T05:34:36;9.93;;;8.73;;
359;SDS011;168;48.872;9.226;2023-07-24T05:37:04;9.23;;;7.90;;
359;SDS011;168;48.872;9.226;2023-07-24T05:39:32;10.90;;;8.80;;
359;SDS011;168;48.872;9.226;2023-07-24T05:41:59;10.20;;;8.30;;
359;SDS011;168;48.872;9.226;2023-07-24T05:44:28;9.60;;;8.23;;
359;SDS011;168;48.872;9.226;2023-07-24T05:46:55;9.40;;;8.40;;
359;SDS011;168;48.872;9.226;2023-07-24T05:49:22;12.20;;;8.60;;
359;SDS011;168;48.872;9.226;2023-07-24T05:51:50;11.97;;;8.90;;
359;SDS011;168;48.872;9.226;2023-07-24T05:54:18;9.43;;;7.77;;
359;SDS011;168;48.872;9.226;2023-07-24T05:56:45;12.10;;;9.27;;
359;SDS011;168;48.872;9.226;2023-07-24T05:59:13;11.83;;;8.10;;
359;SDS011;168;48.872;9.226;2023-07-24T06:01:41;9.03;;;8.13;;
359;SDS011;168;48.872;9.226;2023-07-24T06:04:09;11.30;;;9.20;;
359;SDS011;168;48.872;9.226;2023-07-24T06:06:36;11.43;;;8.77;;
359;SDS011;168;48.872;9.226;2023-07-24T06:09:03;12.73;;;10.43;;
359;SDS011;168;48.872;9.226;2023-07-24T06:11:34;12.20;;;9.43;;
359;SDS011;168;48.872;9.226;2023-07-24T06:14:01;12.83;;;9.43;;
359;SDS011;168;48.872;9.226;2023-07-24T06:16:28;12.63;;;9.00;;
359;SDS011;168;48.872;9.226;2023-07-24T06:18:57;13.30;;;9.67;;
359;SDS011;168;48.872;9.226;2023-07-24T06:21:24;11.43;;;9.30;;
359;SDS011;168;48.872;9.226;2023-07-24T06:23:51;11.53;;;9.27;;
359;SDS011;168;48.872;9.226;2023-07-24T06:26:19;11.97;;;9.80;;
359;SDS011;168;48.872;9.226;2023-07-24T06:28:46;11.53;;;9.73;;
359;SDS011;168;48.872;9.226;2023-07-24T06:31:14;11.87;;;8.87;;
359;SDS011;168;48.872;9.226;2023-07-24T06:33:41;15.07;;;10.30;;
359;SDS011;168;48.872;9.226;2023-07-24T06:36:10;12.23;;;8.60;;
359;SDS011;168;48.872;9.226;2023-07-24T06:38:38;10.10;;;8.50;;
359;SDS011;168;48.872;9.226;2023-07-24T06:41:05;11.57;;;8.43;;
359;SDS011;168;48.872;9.226;2023-07-24T06:43:33;11.03;;;8.30;;
359;SDS011;168;48.872;9.226;2023-07-24T06:46:00;10.40;;;8.67;;
359;SDS011;168;48.872;9.226;2023-07-24T06:48:28;10.83;;;9.03;;
359;SDS011;168;48.872;9.226;2023-07-24T06:50:55;8.97;;;8.07;;
359;SDS011;168;48.872;9.226;2023-07-24T06:53:24;12.47;;;8.90;;
359;SDS011;168;48.872;9.226;2023-07-24T06:55:51;9.40;;;8.43;;
359;SDS011;168;48.872;9.226;2023-07-24T06:58:18;10.57;;;8.50;;
359;SDS011;168;48.872;9.226;2023-07-24T07:00:46;9.70;;;8.57;;
359;SDS011;168;48.872;9.226;2023-07-24T07:03:13;10.10;;;8.53;;
359;SDS011;168;48.872;9.226;2023-07-24T07:05:40;10.90;;;8.20;;
359;SDS011;168;48.872;9.226;2023-07-24T07:08:08;9.10;;;8.00;;
359;SDS011;168;48.872;9.226;2023-07-24T07:10:36;9.70;;;8.70;;
359;SDS011;168;48.872;9.226;2023-07-24T07:13:03;10.43;;;9.13;;
359;SDS011;168;48.872;9.226;2023-07-24T07:15:31;10.00;;;8.40;;
359;SDS011;168;48.872;9.226;2023-07-24T07:17:58;9.70;;;8.70;;
359;SDS011;168;48.872;9.226;2023-07-24T07:20:25;11.90;;;9.33;;
359;SDS011;168;48.872;9.226;2023-07-24T07:22:53;9.50;;;8.30;;
359;SDS011;168;48.872;9.226;2023-07-24T07:25:20;10.87;;;8.90;;
359;SDS011;168;48.872;9.226;2023-07-24T07:27:49;10.70;;;8.57;;
359;SDS011;168;48.872;9.226;2023-07-24T07:30:16;10.20;;;8.40;;
359;SDS011;168;48.872;9.226;2023-07-24T07:32:43;9.63;;;8.27;;
359;SDS011;168;48.872;9.226;2023-07-24T07:35:11;9.97;;;8.40;;
359;SDS011;168;48.872;9.226;2023-07-24T07:37:38;11.57;;;9.30;;
359;SDS011;168;48.872;9.226;2023-07-24T07:40:06;11.93;;;9.90;;
359;SDS011;168;48.872;9.226;2023-07-24T07:42:34;11.70;;;9.67;;
359;SDS011;168;48.872;9.226;2023-07-24T07:45:03;12.77;;;9.73;;
359;SDS011;168;48.872;9.226;2023-07-24T07:47:31;15.90;;;10.17;;
359;SDS011;168;48.872;9.226;2023-07-24T07:49:58;11.40;;;10.00;;
359;SDS011;168;48.872;9.226;2023-07-24T07:52:26;11.33;;;9.50;;
359;SDS011;168;48.872;9.226;2023-07-24T07:54:53;12.70;;;9.60;;
359;SDS011;168;48.872;9.226;2023-07-24T07:57:20;11.10;;;9.80;;
359;SDS011;168;48.872;9.226;2023-07-24T07:59:48;13.63;;;10.03;;
359;SDS011;168;48.872;9.226;2023-07-24T08:02:17;11.77;;;9.00;;
359;SDS011;168;48.872;9.226;2023-07-24T08:04:44;11.20;;;9.23;;
359;SDS011;168;48.872;9.226;2023-07-24T08:07:11;14.10;;;10.00;;
359;SDS011;168;48.872;9.226;2023-07-24T08:09:39;12.97;;;10.57;;
359;SDS011;168;48.872;9.226;2023-07-24T08:12:06;11.57;;;10.37;;
359;SDS011;168;48.872;9.226;2023-07-24T08:14:34;12.83;;;10.33;;
359;SDS011;168;48.872;9.226;2023-07-24T08:17:01;12.33;;;9.40;;
359;SDS011;168;48.872;9.226;2023-07-24T08:19:30;13.23;;;9.00;;
359;SDS011;168;48.872;9.226;2023-07-24T08:21:58;10.30;;;8.67;;
359;SDS011;168;48.872;9.226;2023-07-24T08:24:25;11.07;;;9.40;;
359;SDS011;168;48.872;9.226;2023-07-24T08:26:52;12.17;;;9.60;;
359;SDS011;168;48.872;9.226;2023-07-24T08:29:20;11.67;;;9.93;;
359;SDS011;168;48.872;9.226;2023-07-24T08:31:48;9.97;;;8.70;;
359;SDS011;168;48.872;9.226;2023-07-24T08:34:15;11.60;;;9.60;;
359;SDS011;168;48.872;9.226;2023-07-24T08:36:43;10.53;;;9.40;;
359;SDS011;168;48.872;9.226;2023-07-24T08:39:11;12.63;;;9.57;;
359;SDS011;168;48.872;9.226;2023-07-24T08:41:38;10.07;;;8.93;;
359;SDS011;168;48.872;9.226;2023-07-24T08:44:06;12.10;;;10.77;;
359;SDS011;168;48.872;9.226;2023-07-24T08:46:35;11.70;;;10.17;;
359;SDS011;168;48.872;9.226;2023-07-24T08:49:04;11.50;;;9.13;;
359;SDS011;168;48.872;9.226;2023-07-24T08:51:32;12.50;;;9.90;;
359;SDS011;168;48.872;9.226;2023-07-24T08:54:01;11.80;;;8.87;;
359;SDS011;168;48.872;9.226;2023-07-24T08:56:29;13.10;;;10.17;;
359;SDS011;168;48.872;9.226;2023-07-24T08:58:57;15.67;;;10.00;;
359;SDS011;168;48.872;9.226;2023-07-24T09:01:24;11.20;;;10.10;;
359;SDS011;168;48.872;9.226;2023-07-24T09:03:52;11.10;;;9.00;;
359;SDS011;168;48.872;9.226;2023-07-24T09:06:19;11.17;;;9.93;;
359;SDS011;168;48.872;9.226;2023-07-24T09:08:46;10.77;;;9.67;;
359;SDS011;168;48.872;9.226;2023-07-24T09:11:15;13.37;;;11.60;;
359;SDS011;168;48.872;9.226;2023-07-24T09:13:42;12.47;;;9.90;;
359;SDS011;168;48.872;9.226;2023-07-24T09:16:20;13.80;;;10.17;;
359;SDS011;168;48.872;9.226;2023-07-24T09:18:49;16.37;;;11.40;;
359;SDS011;168;48.872;9.226;2023-07-24T09:21:26;13.30;;;10.07;;
359;SDS011;168;48.872;9.226;2023-07-24T09:23:55;11.57;;;10.00;;
359;SDS011;168;48.872;9.226;2023-07-24T09:26:24;11.40;;;9.83;;
359;SDS011;168;48.872;9.226;2023-07-24T09:28:52;12.00;;;9.57;;
359;SDS011;168;48.872;9.226;2023-07-24T09:31:20;11.60;;;9.70;;
359;SDS011;168;48.872;9.226;2023-07-24T09:33:47;10.30;;;8.70;;
359;SDS011;168;48.872;9.226;2023-07-24T09:36:14;9.80;;;8.80;;
359;SDS011;168;48.872;9.226;2023-07-24T09:38:42;10.90;;;8.80;;
359;SDS011;168;48.872;9.226;2023-07-24T09:41:09;13.00;;;9.67;;
359;SDS011;168;48.872;9.226;2023-07-24T09:43:38;8.40;;;7.20;;
359;SDS011;168;48.872;9.226;2023-07-24T09:46:08;8.87;;;7.33;;
359;SDS011;168;48.872;9.226;2023-07-24T09:48:36;8.80;;;7.73;;
359;SDS011;168;48.872;9.226;2023-07-24T09:51:04;7.40;;;6.70;;
359;SDS011;168;48.872;9.226;2023-07-24T09:53:32;9.20;;;7.80;;
359;SDS011;168;48.872;9.226;2023-07-24T09:56:01;8.20;;;7.40;;
359;SDS011;168;48.872;9.226;2023-07-24T09:58:31;8.77;;;7.87;;
359;SDS011;168;48.872;9.226;2023-07-24T10:01:01;7.83;;;6.67;;
359;SDS011;168;48.872;9.226;2023-07-24T10:03:32;8.13;;;6.53;;
359;SDS011;168;48.872;9.226;2023-07-24T10:06:00;10.57;;;7.33;;
359;SDS011;168;48.872;9.226;2023-07-24T10:08:28;9.13;;;8.23;;
359;SDS011;168;48.872;9.226;2023-07-24T10:10:57;10.20;;;9.10;;
359;SDS011;168;48.872;9.226;2023-07-24T10:13:25;10.00;;;8.00;;
359;SDS011;168;48.872;9.226;2023-07-24T10:15:54;9.50;;;8.47;;
359;SDS011;168;48.872;9.226;2023-07-24T10:18:27;9.47;;;8.50;;
359;SDS011;168;48.872;9.226;2023-07-24T10:21:01;10.80;;;8.53;;
359;SDS011;168;48.872;9.226;2023-07-24T10:23:30;10.20;;;9.20;;
359;SDS011;168;48.872;9.226;2023-07-24T10:26:02;9.70;;;8.10;;
359;SDS011;168;48.872;9.226;2023-07-24T10:28:30;9.20;;;7.50;;
359;SDS011;168;48.872;9.226;2023-07-24T10:31:00;8.33;;;7.37;;
359;SDS011;168;48.872;9.226;2023-07-24T10:33:30;8.73;;;7.07;;
359;SDS011;168;48.872;9.226;2023-07-24T10:36:04;8.70;;;7.33;;
359;SDS011;168;48.872;9.226;2023-07-24T10:38:35;9.20;;;8.30;;
359;SDS011;168;48.872;9.226;2023-07-24T10:41:04;9.70;;;8.10;;
359;SDS011;168;48.872;9.226;2023-07-24T10:43:42;9.47;;;7.60;;
359;SDS011;168;48.872;9.226;2023-07-24T10:46:10;13.07;;;8.33;;
359;SDS011;168;48.872;9.226;2023-07-24T10:48:41;8.03;;;7.23;;
359;SDS011;168;48.872;9.226;2023-07-24T10:51:09;10.30;;;8.33;;
359;SDS011;168;48.872;9.226;2023-07-24T10:53:41;8.30;;;7.10;;
359;SDS011;168;48.872;9.226;2023-07-24T10:56:10;9.43;;;7.87;;
359;SDS011;168;48.872;9.226;2023-07-24T10:58:38;9.30;;;7.27;;
359;SDS011;168;48.872;9.226;2023-07-24T11:01:05;8.17;;;7.23;;
359;SDS011;168;48.872;9.226;2023-07-24T11:03:35;8.70;;;7.53;;
359;SDS011;168;48.872;9.226;2023-07-24T11:06:04;8.70;;;7.40;;
359;SDS011;168;48.872;9.226;2023-07-24T11:08:38;11.73;;;7.67;;
359;SDS011;168;48.872;9.226;2023-07-24T11:11:06;18.00;;;8.20;;
359;SDS011;168;48.872;9.226;2023-07-24T11:13:34;9.03;;;8.13;;
359;SDS011;168;48.872;9.226;2023-07-24T11:16:04;11.90;;;7.87;;
359;SDS011;168;48.872;9.226;2023-07-24T11:18:43;8.63;;;7.73;;
359;SDS011;168;48.872;9.226;2023-07-24T11:21:13;9.47;;;8.07;;
359;SDS011;168;48.872;9.226;2023-07-24T11:23:44;10.27;;;7.50;;
359;SDS011;168;48.872;9.226;2023-07-24T11:26:15;11.10;;;9.00;;
359;SDS011;168;48.872;9.226;2023-07-24T11:28:44;9.17;;;7.43;;
359;SDS011;168;48.872;9.226;2023-07-24T11:31:12;11.70;;;8.57;;
359;SDS011;168;48.872;9.226;2023-07-24T11:33:40;9.03;;;7.90;;
359;SDS011;168;48.872;9.226;2023-07-24T11:36:09;9.80;;;8.33;;
359;SDS011;168;48.872;9.226;2023-07-24T11:38:39;9.00;;;7.70;;
359;SDS011;168;48.872;9.226;2023-07-24T11:41:08;7.97;;;7.13;;
359;SDS011;168;48.872;9.226;2023-07-24T11:43:35;8.40;;;7.60;;
359;SDS011;168;48.872;9.226;2023-07-24T11:46:11;8.17;;;7.30;;
359;SDS011;168;48.872;9.226;2023-07-24T11:48:40;7.90;;;7.10;;
359;SDS011;168;48.872;9.226;2023-07-24T11:51:08;8.40;;;7.10;;
359;SDS011;168;48.872;9.226;2023-07-24T11:53:41;8.67;;;7.10;;
359;SDS011;168;48.872;9.226;2023-07-24T11:56:12;7.77;;;6.87;;
359;SDS011;168;48.872;9.226;2023-07-24T11:58:41;8.30;;;7.50;;
359;SDS011;168;48.872;9.226;2023-07-24T12:01:08;8.13;;;7.30;;
359;SDS011;168;48.872;9.226;2023-07-24T12:03:37;7.93;;;6.87;;
359;SDS011;168;48.872;9.226;2023-07-24T12:06:04;9.23;;;7.63;;
359;SDS011;168;48.872;9.226;2023-07-24T12:08:32;7.70;;;6.93;;
359;SDS011;168;48.872;9.226;2023-07-24T12:11:02;7.93;;;7.13;;
359;SDS011;168;48.872;9.226;2023-07-24T12:13:29;9.23;;;8.20;;
359;SDS011;168;48.872;9.226;2023-07-24T12:15:57;7.87;;;7.10;;
359;SDS011;168;48.872;9.226;2023-07-24T12:18:25;8.20;;;7.40;;
359;SDS011;168;48.872;9.226;2023-07-24T12:20:52;9.90;;;7.20;;
359;SDS011;168;48.872;9.226;2023-07-24T12:23:19;8.43;;;7.50;;
359;SDS011;168;48.872;9.226;2023-07-24T12:25:47;8.33;;;7.47;;
359;SDS011;168;48.872;9.226;2023-07-24T12:28:16;7.93;;;6.80;;
359;SDS011;168;48.872;9.226;2023-07-24T12:30:43;7.57;;;6.70;;
359;SDS011;168;48.872;9.226;2023-07-24T12:33:10;9.17;;;7.53;;
359;SDS011;168;48.872;9.226;2023-07-24T12:35:38;7.13;;;6.43;;
359;SDS011;168;48.872;9.226;2023-07-24T12:38:05;7.90;;;6.80;;
359;SDS011;168;48.872;9.226;2023-07-24T12:40:32;7.93;;;7.03;;
359;SDS011;168;48.872;9.226;2023-07-24T12:43:00;8.90;;;7.50;;
359;SDS011;168;48.872;9.226;2023-07-24T12:45:28;7.60;;;6.83;;
359;SDS011;168;48.872;9.226;2023-07-24T12:47:56;8.60;;;7.27;;
359;SDS011;168;48.872;9.226;2023-07-24T12:50:23;8.83;;;7.13;;
359;SDS011;168;48.872;9.226;2023-07-24T12:52:50;8.23;;;6.40;;
359;SDS011;168;48.872;9.226;2023-07-24T12:55:18;10.47;;;7.40;;
359;SDS011;168;48.872;9.226;2023-07-24T12:57:45;7.73;;;6.50;;
359;SDS011;168;48.872;9.226;2023-07-24T13:00:12;8.73;;;6.83;;
359;SDS011;168;48.872;9.226;2023-07-24T13:02:41;6.93;;;6.00;;
359;SDS011;168;48.872;9.226;2023-07-24T13:05:09;6.70;;;6.00;;
359;SDS011;168;48.872;9.226;2023-07-24T13:07:36;6.63;;;5.90;;
359;SDS011;168;48.872;9.226;2023-07-24T13:10:04;7.70;;;6.90;;
359;SDS011;168;48.872;9.226;2023-07-24T13:12:33;8.03;;;6.50;;
359;SDS011;168;48.872;9.226;2023-07-24T13:15:00;7.03;;;6.33;;
359;SDS011;168;48.872;9.226;2023-07-24T13:17:27;7.17;;;6.43;;
359;SDS011;168;48.872;9.226;2023-07-24T13:19:56;7.47;;;6.37;;
359;SDS011;168;48.872;9.226;2023-07-24T13:22:24;7.13;;;6.40;;
359;SDS011;168;48.872;9.226;2023-07-24T13:24:51;7.70;;;6.90;;
359;SDS011;168;48.872;9.226;2023-07-24T13:27:18;8.40;;;6.90;;
359;SDS011;168;48.872;9.226;2023-07-24T13:29:46;6.70;;;6.00;;
359;SDS011;168;48.872;9.226;2023-07-24T13:32:13;7.53;;;6.50;;
359;SDS011;168;48.872;9.226;2023-07-24T13:34:41;7.90;;;7.10;;
359;SDS011;168;48.872;9.226;2023-07-24T13:37:10;8.17;;;7.37;;
359;SDS011;168;48.872;9.226;2023-07-24T13:39:37;8.13;;;7.03;;
359;SDS011;168;48.872;9.226;2023-07-24T13:42:05;7.80;;;7.00;;
359;SDS011;168;48.872;9.226;2023-07-24T13:44:33;8.60;;;7.40;;
359;SDS011;168;48.872;9.226;2023-07-24T13:47:00;7.27;;;6.57;;
359;SDS011;168;48.872;9.226;2023-07-24T13:49:27;7.40;;;6.33;;
359;SDS011;168;48.872;9.226;2023-07-24T13:51:55;7.43;;;6.73;;
359;SDS011;168;48.872;9.226;2023-07-24T13:54:23;9.23;;;8.33;;
359;SDS011;168;48.872;9.226;2023-07-24T13:56:51;9.87;;;8.60;;
359;SDS011;168;48.872;9.226;2023-07-24T13:59:19;8.50;;;7.43;;
359;SDS011;168;48.872;9.226;2023-07-24T14:01:46;8.33;;;7.50;;
359;SDS011;168;48.872;9.226;2023-07-24T14:04:13;9.00;;;7.50;;
359;SDS011;168;48.872;9.226;2023-07-24T14:06:40;8.00;;;7.20;;
359;SDS011;168;48.872;9.226;2023-07-24T14:09:08;7.93;;;7.13;;
359;SDS011;168;48.872;9.226;2023-07-24T14:11:36;7.77;;;7.03;;
359;SDS011;168;48.872;9.226;2023-07-24T14:14:04;11.07;;;7.33;;
359;SDS011;168;48.872;9.226;2023-07-24T14:16:31;6.63;;;5.93;;
359;SDS011;168;48.872;9.226;2023-07-24T14:18:58;8.20;;;7.33;;
359;SDS011;168;48.872;9.226;2023-07-24T14:21:26;8.43;;;6.20;;
359;SDS011;168;48.872;9.226;2023-07-24T14:23:53;6.53;;;5.50;;
359;SDS011;168;48.872;9.226;2023-07-24T14:26:23;5.83;;;5.13;;
359;SDS011;168;48.872;9.226;2023-07-24T14:28:53;6.03;;;5.43;;
359;SDS011;168;48.872;9.226;2023-07-24T14:31:21;6.20;;;5.60;;
359;SDS011;168;48.872;9.226;2023-07-24T14:33:48;5.43;;;4.93;;
359;SDS011;168;48.872;9.226;2023-07-24T14:36:16;7.47;;;5.73;;
359;SDS011;168;48.872;9.226;2023-07-24T14:38:43;5.83;;;5.00;;
359;SDS011;168;48.872;9.226;2023-07-24T14:41:10;5.90;;;5.30;;
359;SDS011;168;48.872;9.226;2023-07-24T14:43:39;5.23;;;4.53;;
359;SDS011;168;48.872;9.226;2023-07-24T14:46:08;7.23;;;5.03;;
359;SDS011;168;48.872;9.226;2023-07-24T14:48:35;5.63;;;4.80;;
359;SDS011;168;48.872;9.226;2023-07-24T14:51:02;6.10;;;4.60;;
359;SDS011;168;48.872;9.226;2023-07-24T14:53:30;5.50;;;4.53;;
359;SDS011;168;48.872;9.226;2023-07-24T14:55:57;5.20;;;4.70;;
359;SDS011;168;48.872;9.226;2023-07-24T14:58:25;7.27;;;5.03;;
359;SDS011;168;48.872;9.226;2023-07-24T15:00:52;5.43;;;4.87;;
359;SDS011;168;48.872;9.226;2023-07-24T15:03:21;6.07;;;5.07;;
359;SDS011;168;48.872;9.226;2023-07-24T15:05:49;5.77;;;4.67;;
359;SDS011;168;48.872;9.226;2023-07-24T15:08:17;4.77;;;4.27;;
359;SDS011;168;48.872;9.226;2023-07-24T15:10:44;6.53;;;5.50;;
359;SDS011;168;48.872;9.226;2023-07-24T15:13:12;6.30;;;5.27;;
359;SDS011;168;48.872;9.226;2023-07-24T15:15:40;5.20;;;4.50;;
359;SDS011;168;48.872;9.226;2023-07-24T15:18:07;5.00;;;4.03;;
359;SDS011;168;48.872;9.226;2023-07-24T15:20:36;5.20;;;4.70;;
359;SDS011;168;48.872;9.226;2023-07-24T15:23:03;4.93;;;4.53;;
359;SDS011;168;48.872;9.226;2023-07-24T15:25:30;5.10;;;4.60;;
359;SDS011;168;48.872;9.226;2023-07-24T15:27:58;6.30;;;5.00;;
359;SDS011;168;48.872;9.226;2023-07-24T15:30:25;5.47;;;4.87;;
359;SDS011;168;48.872;9.226;2023-07-24T15:32:52;7.30;;;5.80;;
359;SDS011;168;48.872;9.226;2023-07-24T15:35:20;5.57;;;4.40;;
359;SDS011;168;48.872;9.226;2023-07-24T15:37:48;5.40;;;4.73;;
359;SDS011;168;48.872;9.226;2023-07-24T15:40:16;5.10;;;4.47;;
359;SDS011;168;48.872;9.226;2023-07-24T15:42:43;5.10;;;4.60;;